• Join FlightAware (Why Join?)
  • Login
  • US Flag 
07:42AM EDT


 

Airport Tracker/Info


-or-


 

Live Flight TrackerFlight Track Log ✈ SWA1233 ✈ 28-Sep-2013 ✈ KBUR - KSMF

Flight Track Log - Related Links

Times and Time Zones

All times are in EDT time to prevent confusion due to time zone crossing. See the SWA1233 flight status page for this flight to view local times or setup timezone preferences in your user account.

Time Position Orientation Groundspeed Altitude Reporting Facility
EDT Latitude Longitude Course Direction KTS MPH feet Rate Location/Type
04:46PM 34.1667 -118.3667 348° North 171 197 3,100  Level Southern California TRACON
04:48PM 34.1181 -118.4331 229° Southwest 235 270 5,800 2,640 Climbing Los Angeles Center
04:49PM 34.1583 -118.4933 309° West 255 293 9,100 3,480 Climbing Los Angeles Center
04:50PM 34.2467 -118.5431 335° Northwest 289 333 13,100 3,540 Climbing Los Angeles Center
04:51PM 34.3342 -118.5933 335° Northwest 346 398 16,500 3,240 Climbing Los Angeles Center
04:52PM 34.7173 -118.7088 348° North  Level Estimated
04:52PM 34.4269 -118.6458 335° Northwest 368 423 19,900  Level Los Angeles Center
04:53PM 34.5233 -118.7000 335° Northwest 382 440 23,300 2,880 Climbing Los Angeles Center
04:54PM 34.6256 -118.7531 337° Northwest 399 459 25,900 2,460 Climbing Los Angeles Center
04:55PM 34.7369 -118.8031 340° North 422 486 28,400 2,160 Climbing Los Angeles Center
04:56PM 34.8525 -118.8567 339° North 438 504 30,800 2,460 Climbing Los Angeles Center
04:57PM 34.9967 -118.9231 339° North 441 507 34,000 2,700 Climbing Los Angeles Center
04:58PM 35.1347 -118.9856 340° North 443 510 36,500 2,100 Climbing Los Angeles Center
04:59PM 35.2492 -119.0383 339° North 442 509 38,400 1,680 Climbing Los Angeles Center
05:00PM 35.3642 -119.0903 340° North 443 510 40,000 720 Climbing Los Angeles Center
05:01PM 35.4761 -119.1436 339° North 437 503 40,000  Level Los Angeles Center
05:03PM 35.5883 -119.1953 339° North 434 499 40,000  Level Los Angeles Center
05:04PM 35.7206 -119.2589 339° North 430 495 40,000  Level Los Angeles Center
05:05PM 35.8503 -119.3292 336° Northwest 426 490 40,000  Level Los Angeles Center
05:06PM 35.9539 -119.3969 332° Northwest 423 487 40,000  Level Los Angeles Center
05:07PM 36.0597 -119.4636 333° Northwest 428 493 40,000  Level Los Angeles Center
05:08PM 36.1644 -119.5319 332° Northwest 428 493 40,000  Level Los Angeles Center
05:09PM 36.2694 -119.5997 333° Northwest 427 491 40,000  Level Los Angeles Center
05:10PM 36.3956 -119.6781 333° Northwest 429 494 40,000 -420 Level Oakland Center
05:11PM 36.5228 -119.7611 332° Northwest 433 498 39,100 -960 Descending Oakland Center
05:12PM 36.6311 -119.8308 333° Northwest 437 503 38,100 -960 Descending Oakland Center
05:13PM 36.7381 -119.9019 332° Northwest 437 503 37,200 -960 Descending Oakland Center
05:14PM 36.8450 -119.9711 333° Northwest 435 501 36,200 -1,080 Descending Oakland Center
05:15PM 36.9519 -120.0417 332° Northwest 436 502 35,000 -1,860 Descending Oakland Center
05:16PM 37.0578 -120.1122 332° Northwest 434 499 32,500 -2,460 Descending Oakland Center
05:17PM 37.1622 -120.1794 333° Northwest 423 487 30,100 -2,340 Descending Oakland Center
05:18PM 37.2611 -120.2456 332° Northwest 408 470 27,800 -2,280 Descending Oakland Center
05:19PM 37.3567 -120.3067 333° Northwest 392 451 25,500 -1,920 Descending Oakland Center
05:20PM 37.4481 -120.3728 330° Northwest 380 437 24,000 -1,140 Descending Oakland Center
05:21PM 37.5269 -120.4550 320° Northwest 369 425 23,200 -1,020 Descending Oakland Center
05:22PM 37.6239 -120.5503 322° Northwest 367 422 22,000 -1,080 Descending Oakland Center
05:23PM 37.7003 -120.6261 322° Northwest 351 404 21,100 -1,020 Descending Oakland Center
05:24PM 37.7767 -120.7042 321° Northwest 353 406 20,000 -1,020 Descending Oakland Center
05:25PM 37.8506 -120.7781 322° Northwest 338 389 19,100 -960 Descending Oakland Center
05:26PM 37.9231 -120.8528 321° Northwest 335 386 18,000 -1,020 Descending Oakland Center
05:27PM 37.9944 -120.9236 322° Northwest 327 376 17,100 -960 Descending Oakland Center
05:28PM 38.0633 -120.9953 321° Northwest 322 371 16,100 -1,440 Descending Oakland Center
05:29PM 38.1228 -121.0769 313° West 315 362 14,200 -1,320 Descending Oakland Center
05:30PM 38.1772 -121.1572 311° West 301 346 13,500 -1,140 Descending Oakland Center
05:31PM 38.2306 -121.2358 311° West 294 338 12,000 -1,560 Descending Oakland Center
05:32PM 38.2861 -121.3169 311° West 300 345 10,400 -900 Descending Oakland Center
05:34PM 38.3500 -121.4167 309° West 291 335 10,000 -240 Descending Northern Cal TRACON
05:34PM 38.4000 -121.5000 307° West 295 339 10,000 -540 Level Northern Cal TRACON
05:35PM 38.4667 -121.5667 322° Northwest 284 327 9,000 -1,200 Descending Northern Cal TRACON
05:36PM 38.5333 -121.6167 330° Northwest 271 312 7,600 -1,440 Descending Northern Cal TRACON
05:37PM 38.5833 -121.6667 322° Northwest 263 303 6,200 -1,440 Descending Northern Cal TRACON
05:38PM 38.6553 -121.6994 340° North 264 304 4,700 -1,320 Descending Oakland Center
05:40PM 38.7275 -121.7047 357° North 260 299 3,600 -840 Descending Oakland Center
05:41PM 38.7906 -121.6944 North 246 283 3,000 -420 Descending Oakland Center
05:42PM 38.8161 -121.6342 61° Northeast 217 250 2,800 -720 Descending Oakland Center
05:42PM 38.7833 -121.6000 141° Southeast 154 177 1,700 -1,020 Descending Northern Cal TRACON
05:43PM 38.7500 -121.6000 180° South 139 160 900 -720 Descending Northern Cal TRACON
05:44PM 38.7167 -121.6000 180° South 119 137 300 -600 Descending Northern Cal TRACON